createdAt,value
2022-10-20T00:00:37.508Z,10.70
2022-10-20T00:03:05.402Z,10.70
2022-10-20T00:05:33.342Z,10.70
2022-10-20T00:08:01.230Z,10.70
2022-10-20T00:10:29.420Z,10.70
2022-10-20T00:12:57.255Z,10.70
2022-10-20T00:15:25.149Z,10.70
2022-10-20T00:17:54.378Z,10.70
2022-10-20T00:20:22.306Z,10.60
2022-10-20T00:22:50.194Z,10.70
2022-10-20T00:25:18.600Z,10.70
2022-10-20T00:27:46.464Z,10.60
2022-10-20T00:30:14.350Z,10.60
2022-10-20T00:32:42.325Z,10.60
2022-10-20T00:35:11.987Z,10.60
2022-10-20T00:37:39.916Z,10.60
2022-10-20T00:40:08.997Z,10.60
2022-10-20T00:42:37.239Z,10.60
2022-10-20T00:45:14.635Z,10.60
2022-10-20T00:50:22.898Z,10.60
2022-10-20T00:52:52.688Z,10.60
2022-10-20T00:55:23.916Z,10.60
2022-10-20T00:57:53.015Z,10.60
2022-10-20T01:00:21.421Z,10.60
2022-10-20T01:02:51.115Z,10.50
2022-10-20T01:05:20.703Z,10.50
2022-10-20T01:07:48.665Z,10.50
2022-10-20T01:10:17.139Z,10.50
2022-10-20T01:12:53.601Z,10.50
2022-10-20T01:15:29.819Z,10.50
2022-10-20T01:18:05.620Z,10.50
2022-10-20T01:21:04.947Z,10.50
2022-10-20T01:24:17.560Z,10.50
2022-10-20T01:27:03.518Z,10.50
2022-10-20T01:29:37.126Z,10.50
2022-10-20T01:32:11.575Z,10.50
2022-10-20T01:34:50.564Z,10.50
2022-10-20T01:37:47.547Z,10.50
2022-10-20T01:40:21.734Z,10.50
2022-10-20T01:42:53.170Z,10.50
2022-10-20T01:45:25.153Z,10.50
2022-10-20T01:47:53.864Z,10.50
2022-10-20T01:50:22.930Z,10.50
2022-10-20T01:52:50.920Z,10.50
2022-10-20T01:55:19.623Z,10.50
2022-10-20T01:58:10.177Z,10.50
2022-10-20T02:00:40.643Z,10.50
2022-10-20T02:03:24.927Z,10.50
2022-10-20T02:06:04.181Z,10.50
2022-10-20T02:08:40.633Z,10.50
2022-10-20T02:11:13.594Z,10.50
2022-10-20T02:13:43.538Z,10.50
2022-10-20T02:16:17.513Z,10.50
2022-10-20T02:18:47.949Z,10.50
2022-10-20T02:21:17.585Z,10.50
2022-10-20T02:23:48.386Z,10.40
2022-10-20T02:26:19.256Z,10.40
2022-10-20T02:28:51.005Z,10.40
2022-10-20T02:31:21.485Z,10.40
2022-10-20T02:33:49.798Z,10.50
2022-10-20T02:36:20.266Z,10.40
2022-10-20T02:38:48.619Z,10.40
2022-10-20T02:41:16.540Z,10.50
2022-10-20T02:43:44.434Z,10.50
2022-10-20T02:46:12.402Z,10.40
2022-10-20T02:48:41.623Z,10.40
2022-10-20T02:51:09.487Z,10.50
2022-10-20T02:53:37.975Z,10.50
2022-10-20T02:56:06.353Z,10.40
2022-10-20T02:58:34.331Z,10.40
2022-10-20T03:01:02.227Z,10.40
2022-10-20T03:03:30.085Z,10.40
2022-10-20T03:05:59.415Z,10.40
2022-10-20T03:08:27.348Z,10.40
2022-10-20T03:10:55.383Z,10.40
2022-10-20T03:13:23.370Z,10.40
2022-10-20T03:15:51.304Z,10.40
2022-10-20T03:18:19.154Z,10.40
2022-10-20T03:20:47.072Z,10.40
2022-10-20T03:23:17.828Z,10.40
2022-10-20T03:25:48.345Z,10.40
2022-10-20T03:28:16.324Z,10.40
2022-10-20T03:30:46.559Z,10.40
2022-10-20T03:33:14.443Z,10.40
2022-10-20T03:35:42.594Z,10.40
2022-10-20T03:38:10.611Z,10.40
2022-10-20T03:40:40.135Z,10.40
2022-10-20T03:43:08.036Z,10.40
2022-10-20T03:45:36.014Z,10.40
2022-10-20T03:48:04.104Z,10.40
2022-10-20T03:50:31.987Z,10.40
2022-10-20T03:52:59.944Z,10.40
2022-10-20T03:55:27.879Z,10.40
2022-10-20T03:57:57.267Z,10.40
2022-10-20T04:00:25.327Z,10.40
2022-10-20T04:02:53.246Z,10.40
2022-10-20T04:05:22.084Z,10.40
2022-10-20T04:07:50.043Z,10.40
2022-10-20T04:10:18.467Z,10.40
2022-10-20T04:12:46.343Z,10.40
2022-10-20T04:15:15.685Z,10.40
2022-10-20T04:17:43.758Z,10.40
2022-10-20T04:20:12.484Z,10.40
2022-10-20T04:22:40.542Z,10.40
2022-10-20T04:25:09.356Z,10.40
2022-10-20T04:27:37.575Z,10.40
2022-10-20T04:30:06.987Z,10.40
2022-10-20T04:32:36.326Z,10.40
2022-10-20T04:35:04.679Z,10.40
2022-10-20T04:37:32.582Z,10.40
2022-10-20T04:40:00.692Z,10.50
2022-10-20T04:42:28.608Z,10.50
2022-10-20T04:47:33.457Z,10.50
2022-10-20T04:50:02.904Z,10.50
2022-10-20T04:52:30.784Z,10.50
2022-10-20T04:54:58.756Z,10.50
2022-10-20T04:57:26.698Z,10.50
2022-10-20T04:59:54.559Z,10.60
2022-10-20T05:02:22.603Z,10.60
2022-10-20T05:04:50.455Z,10.70
2022-10-20T05:07:19.788Z,10.70
2022-10-20T05:09:49.086Z,10.70
2022-10-20T05:12:17.021Z,10.70
2022-10-20T05:14:45.022Z,10.70
2022-10-20T05:17:12.992Z,10.80
2022-10-20T05:19:40.890Z,10.80
2022-10-20T05:22:08.801Z,10.80
2022-10-20T05:24:38.465Z,10.80
2022-10-20T05:27:06.382Z,10.80
2022-10-20T05:29:34.547Z,10.80
2022-10-20T05:32:02.381Z,10.80
2022-10-20T05:34:30.338Z,10.90
2022-10-20T05:36:58.216Z,10.90
2022-10-20T05:39:26.069Z,10.90
2022-10-20T05:41:55.483Z,11.00
2022-10-20T05:44:23.523Z,11.00
2022-10-20T05:46:51.435Z,11.00
2022-10-20T05:49:19.693Z,11.00
2022-10-20T05:51:48.137Z,11.00
2022-10-20T05:54:16.842Z,11.00
2022-10-20T05:56:44.811Z,11.00
2022-10-20T05:59:14.156Z,11.00
2022-10-20T06:01:48.255Z,11.00
2022-10-20T06:04:18.449Z,11.00
2022-10-20T06:06:48.791Z,11.00
2022-10-20T06:09:17.223Z,11.00
2022-10-20T06:11:45.171Z,11.10
2022-10-20T06:14:14.801Z,11.10
2022-10-20T06:16:42.747Z,11.10
2022-10-20T06:19:10.987Z,11.10
2022-10-20T06:21:39.594Z,11.10
2022-10-20T06:24:08.263Z,11.10
2022-10-20T06:26:37.435Z,11.10
2022-10-20T06:29:06.798Z,11.10
2022-10-20T06:31:39.169Z,11.20
2022-10-20T06:34:08.588Z,11.20
2022-10-20T06:36:38.234Z,11.20
2022-10-20T06:39:08.162Z,11.20
2022-10-20T06:41:36.592Z,11.20
2022-10-20T06:44:04.886Z,11.20
2022-10-20T06:46:36.944Z,11.20
2022-10-20T06:49:07.168Z,11.20
2022-10-20T06:51:36.513Z,11.20
2022-10-20T06:54:04.900Z,11.20
2022-10-20T06:56:35.594Z,11.20
2022-10-20T06:59:04.090Z,11.30
2022-10-20T07:01:33.786Z,11.30
2022-10-20T07:04:05.011Z,11.30
2022-10-20T07:06:35.176Z,11.30
2022-10-20T07:09:04.968Z,11.30
2022-10-20T07:11:33.359Z,11.40
2022-10-20T07:14:02.295Z,11.40
2022-10-20T07:16:32.276Z,11.40
2022-10-20T07:19:01.575Z,11.40
2022-10-20T07:21:35.758Z,11.40
2022-10-20T07:24:06.498Z,11.40
2022-10-20T07:26:36.043Z,11.50
2022-10-20T07:29:04.927Z,11.50
2022-10-20T07:31:35.021Z,11.50
2022-10-20T07:34:23.374Z,11.50
2022-10-20T07:36:54.269Z,11.60
2022-10-20T07:39:22.381Z,11.60
2022-10-20T07:41:50.814Z,11.60
2022-10-20T07:44:19.172Z,11.60
2022-10-20T07:46:47.121Z,11.60
2022-10-20T07:52:04.430Z,11.70
2022-10-20T07:54:32.780Z,11.70
2022-10-20T07:57:00.656Z,11.80
2022-10-20T07:59:29.649Z,11.80
2022-10-20T08:01:59.615Z,11.90
2022-10-20T08:04:28.127Z,11.90
2022-10-20T08:06:56.032Z,11.90
2022-10-20T08:09:25.435Z,11.90
2022-10-20T08:11:55.642Z,12.00
2022-10-20T08:14:26.848Z,12.00
2022-10-20T08:19:51.653Z,12.10
2022-10-20T08:22:20.136Z,12.10
2022-10-20T08:24:49.371Z,12.10
2022-10-20T08:27:17.327Z,12.20
2022-10-20T08:29:50.897Z,12.20
2022-10-20T08:32:28.466Z,12.30
2022-10-20T08:34:56.454Z,12.30
2022-10-20T08:37:24.470Z,12.40
2022-10-20T08:39:54.082Z,12.40
2022-10-20T08:42:22.559Z,12.50
2022-10-20T08:44:51.213Z,12.50
2022-10-20T08:47:30.888Z,12.60
2022-10-20T08:50:02.043Z,12.70
2022-10-20T08:52:30.294Z,12.70
2022-10-20T08:54:59.690Z,12.80
2022-10-20T08:57:29.541Z,12.80
2022-10-20T09:00:06.825Z,12.90
2022-10-20T09:02:36.899Z,13.00
2022-10-20T09:05:07.889Z,13.00
2022-10-20T09:07:37.743Z,13.10
2022-10-20T09:10:18.599Z,13.20
2022-10-20T09:12:48.387Z,13.20
2022-10-20T09:15:19.168Z,13.20
2022-10-20T09:17:49.956Z,13.30
2022-10-20T09:20:23.524Z,13.30
2022-10-20T09:22:51.582Z,13.40
2022-10-20T09:25:24.107Z,13.40
2022-10-20T09:27:53.100Z,13.50
2022-10-20T09:30:23.177Z,13.60
2022-10-20T09:32:51.471Z,13.60
2022-10-20T09:35:23.173Z,13.60
2022-10-20T09:38:04.675Z,13.70
2022-10-20T09:40:34.073Z,13.70
2022-10-20T09:43:08.308Z,13.80
2022-10-20T09:45:39.031Z,13.80
2022-10-20T09:48:22.777Z,13.80
2022-10-20T09:50:55.138Z,13.80
2022-10-20T09:53:26.597Z,13.80
2022-10-20T09:55:56.837Z,13.90
2022-10-20T09:58:28.828Z,14.00
2022-10-20T10:01:00.148Z,14.00
2022-10-20T10:03:29.130Z,14.10
2022-10-20T10:05:58.485Z,14.10
2022-10-20T10:08:28.827Z,14.10
2022-10-20T10:11:04.723Z,14.20
2022-10-20T10:13:40.099Z,14.20
2022-10-20T10:16:10.951Z,14.20
2022-10-20T10:18:39.818Z,14.20
2022-10-20T10:21:09.537Z,14.20
2022-10-20T10:23:50.619Z,14.30
2022-10-20T10:26:43.844Z,14.30
2022-10-20T10:29:19.574Z,14.40
2022-10-20T10:31:52.240Z,14.40
2022-10-20T10:34:44.662Z,14.40
2022-10-20T10:37:15.099Z,14.40
2022-10-20T10:39:44.517Z,14.40
2022-10-20T10:42:40.099Z,14.40
2022-10-20T10:45:19.559Z,14.50
2022-10-20T10:48:13.678Z,14.50
2022-10-20T10:50:49.196Z,14.50
2022-10-20T10:53:32.696Z,14.60
2022-10-20T10:56:10.181Z,14.60
2022-10-20T10:58:47.184Z,14.60
2022-10-20T11:01:28.639Z,14.60
2022-10-20T11:04:11.642Z,14.60
2022-10-20T11:06:44.975Z,14.60
2022-10-20T11:09:25.882Z,14.60
2022-10-20T11:12:22.888Z,14.60
2022-10-20T11:15:04.813Z,14.60
2022-10-20T11:17:45.664Z,14.60
2022-10-20T11:20:25.778Z,14.60
2022-10-20T11:23:17.732Z,14.60
2022-10-20T11:25:53.555Z,14.60
2022-10-20T11:28:30.788Z,14.60
2022-10-20T11:31:01.391Z,14.60
2022-10-20T11:33:39.327Z,14.50
2022-10-20T11:36:15.914Z,14.50
2022-10-20T11:38:48.221Z,14.50
2022-10-20T11:41:21.384Z,14.50
2022-10-20T11:43:56.129Z,14.50
2022-10-20T11:46:33.189Z,14.50
2022-10-20T11:49:03.231Z,14.50
2022-10-20T11:52:05.361Z,14.50
2022-10-20T11:55:01.069Z,14.50
2022-10-20T11:57:44.146Z,14.50
2022-10-20T12:00:21.588Z,14.50
2022-10-20T12:03:22.773Z,14.50
2022-10-20T12:06:25.215Z,14.50
2022-10-20T12:09:10.947Z,14.50
2022-10-20T12:11:49.460Z,14.50
2022-10-20T12:14:25.558Z,14.50
2022-10-20T12:17:15.778Z,14.50
2022-10-20T12:19:45.152Z,14.60
2022-10-20T12:22:43.320Z,14.60
2022-10-20T12:25:34.997Z,14.60
2022-10-20T12:28:45.789Z,14.60
2022-10-20T12:31:13.662Z,14.60
2022-10-20T12:34:00.598Z,14.60
2022-10-20T12:36:38.392Z,14.60
2022-10-20T12:39:19.107Z,14.60
2022-10-20T12:41:58.190Z,14.60
2022-10-20T12:44:27.500Z,14.60
2022-10-20T12:46:57.994Z,14.60
2022-10-20T12:49:31.691Z,14.60
2022-10-20T12:52:02.059Z,14.70
2022-10-20T12:54:39.580Z,14.70
2022-10-20T12:57:28.182Z,14.80
2022-10-20T12:59:56.340Z,14.80
2022-10-20T13:02:50.393Z,14.90
2022-10-20T13:05:44.777Z,14.90
2022-10-20T13:08:36.374Z,14.90
2022-10-20T13:11:46.072Z,14.90
2022-10-20T13:14:56.410Z,14.90
2022-10-20T13:17:30.729Z,14.90
2022-10-20T13:20:03.860Z,14.90
2022-10-20T13:22:38.988Z,14.90
2022-10-20T13:25:17.572Z,15.00
2022-10-20T13:27:45.808Z,15.00
2022-10-20T13:30:21.513Z,15.00
2022-10-20T13:33:11.202Z,15.10
2022-10-20T13:35:54.495Z,15.10
2022-10-20T13:38:28.052Z,15.10
2022-10-20T13:41:03.337Z,15.20
2022-10-20T13:43:38.789Z,15.20
2022-10-20T13:46:32.596Z,15.20
2022-10-20T13:49:19.374Z,15.30
2022-10-20T13:51:52.891Z,15.40
2022-10-20T13:54:26.050Z,15.40
2022-10-20T13:56:56.768Z,15.50
2022-10-20T13:59:26.872Z,15.60
2022-10-20T14:01:57.194Z,15.70
2022-10-20T14:04:30.358Z,15.70
2022-10-20T14:07:03.632Z,15.80
2022-10-20T14:09:31.841Z,15.90
2022-10-20T14:12:04.025Z,15.90
2022-10-20T14:14:32.826Z,16.00
2022-10-20T14:17:02.842Z,16.10
2022-10-20T14:19:33.575Z,16.10
2022-10-20T14:22:14.520Z,16.10
2022-10-20T14:24:44.849Z,16.20
2022-10-20T14:27:21.493Z,16.20
2022-10-20T14:29:50.367Z,16.20
2022-10-20T14:32:20.953Z,16.20
2022-10-20T14:34:58.326Z,16.20
2022-10-20T14:37:31.836Z,16.20
2022-10-20T14:40:03.254Z,16.20
2022-10-20T14:42:34.511Z,16.20
2022-10-20T14:45:04.135Z,16.30
2022-10-20T14:47:35.554Z,16.30
2022-10-20T14:50:04.004Z,16.40
2022-10-20T14:52:35.605Z,16.40
2022-10-20T14:55:04.036Z,16.40
2022-10-20T14:57:44.519Z,16.40
2022-10-20T15:00:28.023Z,16.50
2022-10-20T15:02:58.651Z,16.50
2022-10-20T15:05:36.250Z,16.50
2022-10-20T15:08:20.942Z,16.50
2022-10-20T15:10:49.117Z,16.50
2022-10-20T15:13:39.200Z,16.40
2022-10-20T15:16:08.036Z,16.40
2022-10-20T15:18:39.962Z,16.40
2022-10-20T15:21:09.390Z,16.40
2022-10-20T15:23:37.286Z,16.40
2022-10-20T15:26:10.424Z,16.40
2022-10-20T15:28:40.952Z,16.40
2022-10-20T15:31:17.201Z,16.40
2022-10-20T15:33:45.106Z,16.40
2022-10-20T15:36:15.616Z,16.30
2022-10-20T15:38:43.853Z,16.30
2022-10-20T15:41:14.990Z,16.40
2022-10-20T15:43:44.302Z,16.40
2022-10-20T15:46:13.858Z,16.30
2022-10-20T15:48:43.294Z,16.30
2022-10-20T15:51:16.764Z,16.30
2022-10-20T15:53:46.330Z,16.30
2022-10-20T15:56:14.218Z,16.30
2022-10-20T15:58:42.081Z,16.30
2022-10-20T16:01:13.621Z,16.30
2022-10-20T16:03:43.374Z,16.20
2022-10-20T16:06:13.373Z,16.20
2022-10-20T16:08:41.674Z,16.10
2022-10-20T16:11:10.181Z,16.20
2022-10-20T16:13:38.868Z,16.10
2022-10-20T16:16:08.166Z,16.10
2022-10-20T16:18:37.405Z,16.00
2022-10-20T16:21:06.517Z,16.00
2022-10-20T16:23:40.586Z,16.00
2022-10-20T16:26:12.885Z,15.90
2022-10-20T16:28:40.905Z,15.90
2022-10-20T16:31:10.946Z,15.90
2022-10-20T16:33:40.149Z,15.90
2022-10-20T16:36:10.793Z,15.80
2022-10-20T16:38:40.257Z,15.80
2022-10-20T16:41:10.692Z,15.80
2022-10-20T16:43:39.653Z,15.70
2022-10-20T16:46:08.229Z,15.70
2022-10-20T16:48:37.846Z,15.70
2022-10-20T16:51:08.566Z,15.60
2022-10-20T16:53:37.341Z,15.60
2022-10-20T16:56:05.941Z,15.60
2022-10-20T16:58:33.911Z,15.60
2022-10-20T17:01:04.149Z,15.50
2022-10-20T17:03:32.294Z,15.50
2022-10-20T17:06:02.896Z,15.50
2022-10-20T17:08:32.722Z,15.40
2022-10-20T17:11:02.191Z,15.40
2022-10-20T17:13:31.392Z,15.40
2022-10-20T17:16:05.081Z,15.30
2022-10-20T17:18:33.442Z,15.30
2022-10-20T17:21:01.578Z,15.30
2022-10-20T17:23:37.394Z,15.30
2022-10-20T17:26:09.616Z,15.20
2022-10-20T17:28:38.658Z,15.20
2022-10-20T17:31:07.977Z,15.20
2022-10-20T17:33:36.338Z,15.20
2022-10-20T17:36:04.630Z,15.10
2022-10-20T17:38:34.613Z,15.10
2022-10-20T17:41:04.496Z,15.10
2022-10-20T17:43:32.438Z,15.10
2022-10-20T17:46:01.882Z,15.10
2022-10-20T17:48:29.773Z,15.10
2022-10-20T17:51:01.670Z,15.10
2022-10-20T17:53:31.323Z,15.10
2022-10-20T17:56:03.547Z,15.00
2022-10-20T17:58:31.501Z,15.00
2022-10-20T18:01:09.551Z,15.00
2022-10-20T18:03:37.784Z,15.10
2022-10-20T18:06:14.605Z,15.00
2022-10-20T18:08:42.755Z,15.00
2022-10-20T18:11:13.233Z,15.00
2022-10-20T18:13:41.497Z,15.00
2022-10-20T18:16:12.196Z,15.00
2022-10-20T18:18:40.452Z,15.00
2022-10-20T18:21:10.250Z,14.90
2022-10-20T18:23:38.234Z,14.90
2022-10-20T18:26:08.002Z,14.90
2022-10-20T18:28:39.539Z,14.90
2022-10-20T18:31:10.975Z,14.90
2022-10-20T18:33:41.493Z,14.90
2022-10-20T18:36:11.612Z,14.90
2022-10-20T18:38:41.103Z,15.00
2022-10-20T18:41:10.524Z,14.90
2022-10-20T18:43:40.290Z,14.90
2022-10-20T18:46:10.101Z,14.90
2022-10-20T18:48:39.933Z,14.90
2022-10-20T18:51:09.938Z,14.90
2022-10-20T18:56:13.755Z,14.90
2022-10-20T18:58:44.432Z,14.90
2022-10-20T19:01:14.654Z,14.90
2022-10-20T19:03:46.189Z,14.90
2022-10-20T19:06:17.547Z,14.90
2022-10-20T19:08:45.871Z,14.90
2022-10-20T19:11:16.585Z,14.90
2022-10-20T19:13:46.403Z,14.90
2022-10-20T19:16:17.547Z,14.90
2022-10-20T19:18:46.695Z,14.90
2022-10-20T19:21:15.059Z,14.90
2022-10-20T19:23:45.156Z,14.90
2022-10-20T19:26:15.730Z,14.90
2022-10-20T19:28:46.899Z,14.90
2022-10-20T19:31:21.267Z,14.90
2022-10-20T19:33:52.592Z,14.90
2022-10-20T19:36:21.011Z,14.90
2022-10-20T19:38:49.053Z,14.90
2022-10-20T19:41:17.034Z,14.90
2022-10-20T19:43:46.546Z,14.90
2022-10-20T19:46:16.873Z,15.00
2022-10-20T19:48:45.984Z,14.90
2022-10-20T19:51:14.337Z,15.00
2022-10-20T19:53:42.502Z,15.00
2022-10-20T19:56:12.052Z,15.00
2022-10-20T19:58:44.175Z,15.00
2022-10-20T20:01:16.139Z,15.00
2022-10-20T20:03:44.601Z,15.00
2022-10-20T20:06:16.614Z,15.00
2022-10-20T20:08:45.828Z,15.00
2022-10-20T20:11:23.609Z,15.00
2022-10-20T20:13:52.165Z,14.90
2022-10-20T20:16:22.056Z,15.00
2022-10-20T20:18:50.283Z,14.90
2022-10-20T20:21:18.687Z,14.90
2022-10-20T20:23:58.768Z,14.90
2022-10-20T20:26:28.493Z,14.90
2022-10-20T20:28:57.762Z,14.90
2022-10-20T20:31:27.925Z,14.90
2022-10-20T20:33:57.186Z,14.90
2022-10-20T20:36:27.608Z,14.90
2022-10-20T20:38:57.988Z,14.90
2022-10-20T20:41:27.621Z,14.80
2022-10-20T20:43:55.674Z,14.90
2022-10-20T20:46:24.907Z,14.90
2022-10-20T20:48:54.243Z,14.80
2022-10-20T20:51:22.925Z,14.80
2022-10-20T20:53:50.794Z,14.80
2022-10-20T20:56:21.857Z,14.80
2022-10-20T20:58:54.959Z,14.80
2022-10-20T21:01:27.279Z,14.80
2022-10-20T21:03:58.244Z,14.80
2022-10-20T21:07:00.356Z,14.80
2022-10-20T21:09:15.418Z,14.80
2022-10-20T21:11:43.733Z,14.70
2022-10-20T21:14:11.650Z,14.70
2022-10-20T21:16:39.574Z,14.80
2022-10-20T21:19:10.482Z,14.80
2022-10-20T21:21:39.986Z,14.70
2022-10-20T21:24:07.941Z,14.70
2022-10-20T21:26:35.873Z,14.70
2022-10-20T21:29:03.844Z,14.80
2022-10-20T21:31:32.268Z,14.80
2022-10-20T21:34:02.030Z,14.70
2022-10-20T21:36:34.748Z,14.70
2022-10-20T21:39:04.594Z,14.70
2022-10-20T21:41:34.419Z,14.70
2022-10-20T21:44:04.554Z,14.70
2022-10-20T21:46:34.210Z,14.80
2022-10-20T21:49:04.194Z,14.70
2022-10-20T21:51:35.438Z,14.70
2022-10-20T21:54:06.059Z,14.70
2022-10-20T21:56:36.787Z,14.70
2022-10-20T21:59:05.543Z,14.70
2022-10-20T22:01:33.843Z,14.70
2022-10-20T22:04:02.088Z,14.70
2022-10-20T22:06:30.065Z,14.70
2022-10-20T22:08:59.827Z,14.70
2022-10-20T22:11:30.494Z,14.70
2022-10-20T22:13:59.150Z,14.70
2022-10-20T22:16:28.473Z,14.70
2022-10-20T22:18:57.594Z,14.70
2022-10-20T22:21:25.575Z,14.70
2022-10-20T22:23:55.443Z,14.70
2022-10-20T22:26:26.854Z,14.70
2022-10-20T22:28:55.388Z,14.70
2022-10-20T22:31:24.030Z,14.70
2022-10-20T22:33:52.462Z,14.70
2022-10-20T22:36:20.917Z,14.70
2022-10-20T22:38:48.946Z,14.60
2022-10-20T22:41:16.891Z,14.70
2022-10-20T22:43:46.147Z,14.70
2022-10-20T22:46:15.823Z,14.70
2022-10-20T22:48:44.375Z,14.60
2022-10-20T22:51:12.402Z,14.60
2022-10-20T22:53:40.684Z,14.70
2022-10-20T22:56:10.561Z,14.60
2022-10-20T22:58:38.972Z,14.60
2022-10-20T23:01:09.786Z,14.70
2022-10-20T23:03:38.157Z,14.60
2022-10-20T23:06:13.165Z,14.60
2022-10-20T23:08:43.162Z,14.60
2022-10-20T23:11:11.564Z,14.60
2022-10-20T23:13:39.937Z,14.60
2022-10-20T23:16:10.184Z,14.60
2022-10-20T23:18:38.557Z,14.60
2022-10-20T23:21:07.360Z,14.60
2022-10-20T23:23:36.729Z,14.60
2022-10-20T23:26:05.162Z,14.60
2022-10-20T23:28:33.110Z,14.60
2022-10-20T23:31:13.268Z,14.70
2022-10-20T23:33:42.717Z,14.70
2022-10-20T23:36:11.383Z,14.70
2022-10-20T23:38:39.355Z,14.70
2022-10-20T23:41:08.043Z,14.70
2022-10-20T23:46:09.711Z,14.70
2022-10-20T23:48:40.121Z,14.70
2022-10-20T23:51:08.974Z,14.80
2022-10-20T23:53:37.175Z,14.80
2022-10-20T23:56:05.317Z,14.80
2022-10-20T23:58:33.324Z,14.80
